createdAt,value
2022-09-16T00:00:53.506Z,9.95
2022-09-16T00:03:21.840Z,8.80
2022-09-16T00:05:50.410Z,10.85
2022-09-16T00:08:18.466Z,10.98
2022-09-16T00:10:45.393Z,11.02
2022-09-16T00:13:12.490Z,11.63
2022-09-16T00:15:42.544Z,9.02
2022-09-16T00:18:09.176Z,10.32
2022-09-16T00:20:37.039Z,8.95
2022-09-16T00:23:03.612Z,9.15
2022-09-16T00:25:30.097Z,9.02
2022-09-16T00:27:56.622Z,8.43
2022-09-16T00:30:23.107Z,13.98
2022-09-16T00:32:49.619Z,9.85
2022-09-16T00:35:16.152Z,12.52
2022-09-16T00:37:43.994Z,8.13
2022-09-16T00:40:11.048Z,9.95
2022-09-16T00:42:38.897Z,11.57
2022-09-16T00:45:13.409Z,11.13
2022-09-16T00:47:42.982Z,10.57
2022-09-16T00:50:13.863Z,12.20
2022-09-16T00:52:41.442Z,12.60
2022-09-16T00:55:15.682Z,8.00
2022-09-16T00:57:42.873Z,8.77
2022-09-16T01:00:10.819Z,16.98
2022-09-16T01:02:37.784Z,10.10
2022-09-16T01:05:07.881Z,8.45
2022-09-16T01:07:39.200Z,9.45
2022-09-16T01:10:06.854Z,12.27
2022-09-16T01:12:36.362Z,8.93
2022-09-16T01:15:04.652Z,11.10
2022-09-16T01:17:46.271Z,17.08
2022-09-16T01:20:51.597Z,10.13
2022-09-16T01:23:43.641Z,11.65
2022-09-16T01:26:25.829Z,10.75
2022-09-16T01:29:18.728Z,13.90
2022-09-16T01:31:54.154Z,12.45
2022-09-16T01:34:28.402Z,10.25
2022-09-16T01:37:06.326Z,10.32
2022-09-16T01:39:43.483Z,12.90
2022-09-16T01:42:20.517Z,11.25
2022-09-16T01:44:55.130Z,10.88
2022-09-16T01:47:32.590Z,18.33
2022-09-16T01:50:06.195Z,11.90
2022-09-16T01:52:46.548Z,14.02
2022-09-16T01:55:22.380Z,11.38
2022-09-16T01:57:53.522Z,16.40
2022-09-16T02:00:20.790Z,11.73
2022-09-16T02:02:53.875Z,12.57
2022-09-16T02:05:25.966Z,12.48
2022-09-16T02:07:59.529Z,14.40
2022-09-16T02:10:31.165Z,13.38
2022-09-16T02:13:02.748Z,13.48
2022-09-16T02:15:33.145Z,11.52
2022-09-16T02:18:04.738Z,11.52
2022-09-16T02:20:33.657Z,13.52
2022-09-16T02:23:06.695Z,14.27
2022-09-16T02:25:35.938Z,17.95
2022-09-16T02:28:07.018Z,13.07
2022-09-16T02:30:34.533Z,11.17
2022-09-16T02:33:07.537Z,16.52
2022-09-16T02:35:36.793Z,12.13
2022-09-16T02:38:07.042Z,10.35
2022-09-16T02:40:38.315Z,14.13
2022-09-16T02:43:04.965Z,10.30
2022-09-16T02:45:44.775Z,13.85
2022-09-16T02:48:19.450Z,13.05
2022-09-16T02:50:56.725Z,15.27
2022-09-16T02:53:32.777Z,11.23
2022-09-16T02:56:03.060Z,12.93
2022-09-16T02:58:29.855Z,12.85
2022-09-16T03:00:57.613Z,11.18
2022-09-16T03:03:25.839Z,9.52
2022-09-16T03:06:10.142Z,16.30
2022-09-16T03:08:38.341Z,10.80
2022-09-16T03:11:13.802Z,11.85
2022-09-16T03:13:52.313Z,11.00
2022-09-16T03:16:31.011Z,12.55
2022-09-16T03:19:09.286Z,11.93
2022-09-16T03:21:44.208Z,13.82
2022-09-16T03:24:19.897Z,14.07
2022-09-16T03:26:50.603Z,14.95
2022-09-16T03:29:21.933Z,14.63
2022-09-16T03:31:58.082Z,12.27
2022-09-16T03:34:31.985Z,16.70
2022-09-16T03:37:03.103Z,10.73
2022-09-16T03:39:31.113Z,14.60
2022-09-16T03:42:02.250Z,10.60
2022-09-16T03:44:33.153Z,13.73
2022-09-16T03:46:59.680Z,14.13
2022-09-16T03:49:27.598Z,14.05
2022-09-16T03:51:54.105Z,17.77
2022-09-16T03:54:20.593Z,13.52
2022-09-16T03:56:47.237Z,15.00
2022-09-16T03:59:13.846Z,14.35
2022-09-16T04:01:40.442Z,11.32
2022-09-16T04:04:07.024Z,13.55
2022-09-16T04:06:34.921Z,11.93
2022-09-16T04:09:02.545Z,14.27
2022-09-16T04:11:29.352Z,16.30
2022-09-16T04:13:55.920Z,13.75
2022-09-16T04:16:22.627Z,18.08
2022-09-16T04:18:49.506Z,13.30
2022-09-16T04:21:16.561Z,16.75
2022-09-16T04:23:44.737Z,11.98
2022-09-16T04:26:11.574Z,12.55
2022-09-16T04:28:38.336Z,12.18
2022-09-16T04:31:06.864Z,13.32
2022-09-16T04:33:35.484Z,13.73
2022-09-16T04:36:03.789Z,13.68
2022-09-16T04:38:30.617Z,15.05
2022-09-16T04:41:01.970Z,21.00
2022-09-16T04:43:28.541Z,16.60
2022-09-16T04:45:55.249Z,19.13
2022-09-16T04:48:21.892Z,12.30
2022-09-16T04:50:48.423Z,13.90
2022-09-16T04:53:14.969Z,14.95
2022-09-16T04:55:41.508Z,14.65
2022-09-16T04:58:09.434Z,11.82
2022-09-16T05:00:36.003Z,12.38
2022-09-16T05:03:02.591Z,16.40
2022-09-16T05:05:29.270Z,12.60
2022-09-16T05:07:55.830Z,12.13
2022-09-16T05:10:22.376Z,11.43
2022-09-16T05:12:51.249Z,13.68
2022-09-16T05:15:19.915Z,15.93
2022-09-16T05:17:51.251Z,16.00
2022-09-16T05:22:44.850Z,11.00
2022-09-16T05:25:11.627Z,13.77
2022-09-16T05:27:38.297Z,11.70
2022-09-16T05:30:05.716Z,14.45
2022-09-16T05:32:33.620Z,12.48
2022-09-16T05:35:00.178Z,13.88
2022-09-16T05:37:26.907Z,15.35
2022-09-16T05:39:53.537Z,13.90
2022-09-16T05:42:20.121Z,12.52
2022-09-16T05:44:46.659Z,12.55
2022-09-16T05:47:13.227Z,12.60
2022-09-16T05:49:41.111Z,12.80
2022-09-16T05:52:07.653Z,15.18
2022-09-16T05:54:34.179Z,15.32
2022-09-16T05:57:06.018Z,14.35
2022-09-16T05:59:33.491Z,16.52
2022-09-16T06:02:00.124Z,14.32
2022-09-16T06:04:26.845Z,16.33
2022-09-16T06:06:54.732Z,11.20
2022-09-16T06:09:23.253Z,12.55
2022-09-16T06:11:51.741Z,15.52
2022-09-16T06:14:19.468Z,16.52
2022-09-16T06:16:46.420Z,16.20
2022-09-16T06:19:14.399Z,17.02
2022-09-16T06:21:42.129Z,12.48
2022-09-16T06:24:11.091Z,15.40
2022-09-16T06:26:39.356Z,14.02
2022-09-16T06:29:06.487Z,16.00
2022-09-16T06:31:34.117Z,13.18
2022-09-16T06:34:00.704Z,14.15
2022-09-16T06:36:29.100Z,12.73
2022-09-16T06:38:56.049Z,12.57
2022-09-16T06:41:24.597Z,15.98
2022-09-16T06:43:51.671Z,15.73
2022-09-16T06:46:20.952Z,13.50
2022-09-16T06:48:49.080Z,17.90
2022-09-16T06:51:17.339Z,15.70
2022-09-16T06:53:44.749Z,16.50
2022-09-16T06:56:13.063Z,13.15
2022-09-16T06:58:42.681Z,13.35
2022-09-16T07:01:11.079Z,21.63
2022-09-16T07:03:39.171Z,14.82
2022-09-16T07:06:06.697Z,16.08
2022-09-16T07:08:35.013Z,12.63
2022-09-16T07:11:04.401Z,13.13
2022-09-16T07:13:31.482Z,13.57
2022-09-16T07:16:16.216Z,13.80
2022-09-16T07:18:43.620Z,12.18
2022-09-16T07:21:12.333Z,13.85
2022-09-16T07:23:39.998Z,11.07
2022-09-16T07:26:08.208Z,14.90
2022-09-16T07:28:35.350Z,12.30
2022-09-16T07:31:04.346Z,12.65
2022-09-16T07:33:31.999Z,12.90
2022-09-16T07:35:59.209Z,14.73
2022-09-16T07:38:26.096Z,10.25
2022-09-16T07:40:53.039Z,10.88
2022-09-16T07:43:19.577Z,10.63
2022-09-16T07:45:46.124Z,14.13
2022-09-16T07:48:14.088Z,14.15
2022-09-16T07:50:40.594Z,18.63
2022-09-16T07:53:07.122Z,14.30
2022-09-16T07:55:35.411Z,13.15
2022-09-16T07:58:01.980Z,15.40
2022-09-16T08:00:28.509Z,12.00
2022-09-16T08:02:56.981Z,10.40
2022-09-16T08:05:24.968Z,11.55
2022-09-16T08:07:51.487Z,18.23
2022-09-16T08:10:17.989Z,12.93
2022-09-16T08:12:47.099Z,12.25
2022-09-16T08:15:13.796Z,11.55
2022-09-16T08:17:40.347Z,7.03
2022-09-16T08:20:07.328Z,10.65
2022-09-16T08:22:35.369Z,9.45
2022-09-16T08:25:01.888Z,11.00
2022-09-16T08:27:28.390Z,10.27
2022-09-16T08:29:54.910Z,10.15
2022-09-16T08:32:21.480Z,11.25
2022-09-16T08:34:47.976Z,13.82
2022-09-16T08:37:14.528Z,11.27
2022-09-16T08:39:42.385Z,8.73
2022-09-16T08:42:28.027Z,10.35
2022-09-16T08:45:03.352Z,7.32
2022-09-16T08:47:39.521Z,11.93
2022-09-16T08:50:16.589Z,9.57
2022-09-16T08:52:45.332Z,10.65
2022-09-16T08:55:18.656Z,7.88
2022-09-16T08:57:53.821Z,7.70
2022-09-16T09:00:20.803Z,12.05
2022-09-16T09:02:52.913Z,7.50
2022-09-16T09:05:34.431Z,14.32
2022-09-16T09:08:18.968Z,10.73
2022-09-16T09:10:50.658Z,10.02
2022-09-16T09:13:40.269Z,8.48
2022-09-16T09:16:15.107Z,9.68
2022-09-16T09:18:50.980Z,12.52
2022-09-16T09:21:27.265Z,7.47
2022-09-16T09:24:09.849Z,5.38
2022-09-16T09:26:45.436Z,5.03
2022-09-16T09:29:36.364Z,7.85
2022-09-16T09:32:13.951Z,9.98
2022-09-16T09:34:58.195Z,11.00
2022-09-16T09:37:42.085Z,8.38
2022-09-16T09:40:13.314Z,7.32
2022-09-16T09:42:45.764Z,5.85
2022-09-16T09:45:18.980Z,5.70
2022-09-16T09:47:49.790Z,9.77
2022-09-16T09:50:22.604Z,11.88
2022-09-16T09:52:56.877Z,6.38
2022-09-16T09:55:26.384Z,7.00
2022-09-16T09:58:10.924Z,10.95
2022-09-16T10:00:37.768Z,8.40
2022-09-16T10:03:11.751Z,4.47
2022-09-16T10:05:38.694Z,4.45
2022-09-16T10:08:15.851Z,8.23
2022-09-16T10:10:48.347Z,8.15
2022-09-16T10:13:17.201Z,6.80
2022-09-16T10:15:44.137Z,5.85
2022-09-16T10:18:13.741Z,5.55
2022-09-16T10:20:43.999Z,8.85
2022-09-16T10:23:12.980Z,6.80
2022-09-16T10:25:40.545Z,4.75
2022-09-16T10:28:25.439Z,6.65
2022-09-16T10:30:54.570Z,6.03
2022-09-16T10:33:24.677Z,4.18
2022-09-16T10:35:54.852Z,4.70
2022-09-16T10:38:23.540Z,5.68
2022-09-16T10:40:53.831Z,3.97
2022-09-16T10:43:22.698Z,5.30
2022-09-16T10:45:53.811Z,5.10
2022-09-16T10:48:23.140Z,4.53
2022-09-16T10:50:54.603Z,5.45
2022-09-16T10:53:23.765Z,5.05
2022-09-16T10:55:57.255Z,8.05
2022-09-16T10:58:23.823Z,4.35
2022-09-16T11:01:02.305Z,6.82
2022-09-16T11:03:55.104Z,5.38
2022-09-16T11:06:43.659Z,6.13
2022-09-16T11:09:19.162Z,4.38
2022-09-16T11:11:57.034Z,3.53
2022-09-16T11:14:36.813Z,3.75
2022-09-16T11:17:18.430Z,4.90
2022-09-16T11:20:00.662Z,3.45
2022-09-16T11:22:36.122Z,4.20
2022-09-16T11:25:38.457Z,3.05
2022-09-16T11:30:48.749Z,9.80
2022-09-16T11:33:29.063Z,8.45
2022-09-16T11:36:23.843Z,6.57
2022-09-16T11:39:03.935Z,4.95
2022-09-16T11:41:34.462Z,6.80
2022-09-16T11:44:26.345Z,6.00
2022-09-16T11:47:04.852Z,3.50
2022-09-16T11:49:52.960Z,3.38
2022-09-16T11:52:32.886Z,5.60
2022-09-16T11:55:17.657Z,5.20
2022-09-16T11:57:51.367Z,5.30
2022-09-16T12:00:19.085Z,6.90
2022-09-16T12:02:53.218Z,5.50
2022-09-16T12:05:25.031Z,5.53
2022-09-16T12:08:00.246Z,5.20
2022-09-16T12:10:33.573Z,5.20
2022-09-16T12:13:05.697Z,7.20
2022-09-16T12:15:37.418Z,4.63
2022-09-16T12:18:15.012Z,6.70
2022-09-16T12:20:47.033Z,5.53
2022-09-16T12:23:19.510Z,3.42
2022-09-16T12:25:55.465Z,5.13
2022-09-16T12:28:27.604Z,5.22
2022-09-16T12:31:04.015Z,4.95
2022-09-16T12:33:40.295Z,3.17
2022-09-16T12:36:12.195Z,3.45
2022-09-16T12:41:20.277Z,5.88
2022-09-16T12:44:23.563Z,5.68
2022-09-16T12:47:20.110Z,3.03
2022-09-16T12:50:25.356Z,4.25
2022-09-16T12:53:23.872Z,5.47
2022-09-16T12:56:02.647Z,3.80
2022-09-16T12:58:55.344Z,4.25
2022-09-16T13:01:24.806Z,4.55
2022-09-16T13:03:56.701Z,5.30
2022-09-16T13:08:54.308Z,3.88
2022-09-16T13:14:21.228Z,3.70
2022-09-16T13:16:54.129Z,5.05
2022-09-16T13:19:35.874Z,6.38
2022-09-16T13:22:14.851Z,4.88
2022-09-16T13:24:47.867Z,4.85
2022-09-16T13:27:25.752Z,7.38
2022-09-16T13:29:52.527Z,6.72
2022-09-16T13:32:37.386Z,5.68
2022-09-16T13:35:20.535Z,4.05
2022-09-16T13:37:48.325Z,3.20
2022-09-16T13:40:22.004Z,4.70
2022-09-16T13:42:48.629Z,6.20
2022-09-16T13:45:32.611Z,5.57
2022-09-16T13:48:05.156Z,4.60
2022-09-16T13:50:31.861Z,4.43
2022-09-16T13:53:09.164Z,3.10
2022-09-16T13:55:39.728Z,3.97
2022-09-16T13:58:15.010Z,3.22
2022-09-16T14:00:50.055Z,7.75
2022-09-16T14:03:35.825Z,4.82
2022-09-16T14:06:21.828Z,4.50
2022-09-16T14:08:57.530Z,3.80
2022-09-16T14:11:35.466Z,4.10
2022-09-16T14:14:06.904Z,4.75
2022-09-16T14:16:35.644Z,6.07
2022-09-16T14:19:06.079Z,6.25
2022-09-16T14:21:32.862Z,6.07
2022-09-16T14:24:08.528Z,5.07
2022-09-16T14:26:36.405Z,7.47
2022-09-16T14:29:04.952Z,6.30
2022-09-16T14:31:33.476Z,5.50
2022-09-16T14:34:05.471Z,4.80
2022-09-16T14:39:02.776Z,4.72
2022-09-16T14:41:32.962Z,5.72
2022-09-16T14:44:08.456Z,5.22
2022-09-16T14:46:40.969Z,5.25
2022-09-16T14:49:10.635Z,6.50
2022-09-16T14:51:39.613Z,8.88
2022-09-16T14:54:12.792Z,3.75
2022-09-16T14:56:39.863Z,4.45
2022-09-16T14:59:10.929Z,3.80
2022-09-16T15:01:39.047Z,2.67
2022-09-16T15:04:09.663Z,5.55
2022-09-16T15:06:41.727Z,6.82
2022-09-16T15:09:16.182Z,5.10
2022-09-16T15:11:48.657Z,5.85
2022-09-16T15:14:17.828Z,4.18
2022-09-16T15:16:48.198Z,3.22
2022-09-16T15:19:20.189Z,4.47
2022-09-16T15:21:47.281Z,5.70
2022-09-16T15:24:17.968Z,4.40
2022-09-16T15:26:46.341Z,4.05
2022-09-16T15:29:29.243Z,5.75
2022-09-16T15:32:07.343Z,7.88
2022-09-16T15:34:34.050Z,5.28
2022-09-16T15:37:00.591Z,6.20
2022-09-16T15:39:28.402Z,9.57
2022-09-16T15:42:11.539Z,5.78
2022-09-16T15:44:46.293Z,7.03
2022-09-16T15:47:18.591Z,3.72
2022-09-16T15:49:45.768Z,4.97
2022-09-16T15:52:13.016Z,4.30
2022-09-16T15:54:48.927Z,3.00
2022-09-16T15:57:27.427Z,4.60
2022-09-16T16:00:00.784Z,2.53
2022-09-16T16:02:35.486Z,8.02
2022-09-16T16:05:06.594Z,4.30
2022-09-16T16:07:40.207Z,4.63
2022-09-16T16:10:15.223Z,4.10
2022-09-16T16:12:41.735Z,3.88
2022-09-16T16:15:09.816Z,4.72
2022-09-16T16:17:36.386Z,3.83
2022-09-16T16:20:03.390Z,2.80
2022-09-16T16:22:30.013Z,3.67
2022-09-16T16:24:56.568Z,6.20
2022-09-16T16:27:23.116Z,9.95
2022-09-16T16:29:49.742Z,7.00
2022-09-16T16:32:17.620Z,4.97
2022-09-16T16:34:45.845Z,6.07
2022-09-16T16:37:33.745Z,5.32
2022-09-16T16:40:00.489Z,4.55
2022-09-16T16:42:27.289Z,4.57
2022-09-16T16:44:53.845Z,7.25
2022-09-16T16:47:21.830Z,7.65
2022-09-16T16:49:51.364Z,3.90
2022-09-16T16:52:18.318Z,2.92
2022-09-16T16:54:44.880Z,3.85
2022-09-16T16:57:11.506Z,8.25
2022-09-16T16:59:38.037Z,3.65
2022-09-16T17:02:04.741Z,5.60
2022-09-16T17:04:32.670Z,6.93
2022-09-16T17:07:24.130Z,10.43
2022-09-16T17:09:45.685Z,7.18
2022-09-16T17:12:12.229Z,6.28
2022-09-16T17:14:38.780Z,3.15
2022-09-16T17:17:05.299Z,3.90
2022-09-16T17:19:33.181Z,4.25
2022-09-16T17:21:59.712Z,4.07
2022-09-16T17:24:26.267Z,3.40
2022-09-16T17:26:52.796Z,2.10
2022-09-16T17:29:19.317Z,6.78
2022-09-16T17:31:45.875Z,5.57
2022-09-16T17:34:14.693Z,3.78
2022-09-16T17:36:44.134Z,2.53
2022-09-16T17:39:15.413Z,3.92
2022-09-16T17:41:42.385Z,5.30
2022-09-16T17:44:11.070Z,11.52
2022-09-16T17:46:38.226Z,5.00
2022-09-16T17:49:07.359Z,3.40
2022-09-16T17:51:35.143Z,6.18
2022-09-16T17:54:03.114Z,2.70
2022-09-16T17:56:30.053Z,4.68
2022-09-16T17:58:56.687Z,4.28
2022-09-16T18:01:25.421Z,3.83
2022-09-16T18:03:54.069Z,3.47
2022-09-16T18:06:22.591Z,3.22
2022-09-16T18:08:50.375Z,3.50
2022-09-16T18:11:18.952Z,6.13
2022-09-16T18:13:45.504Z,6.95
2022-09-16T18:16:14.146Z,5.07
2022-09-16T18:18:42.148Z,7.38
2022-09-16T18:21:10.992Z,4.95
2022-09-16T18:23:37.584Z,6.50
2022-09-16T18:26:05.644Z,2.65
2022-09-16T18:28:51.657Z,4.63
2022-09-16T18:31:23.092Z,5.22
2022-09-16T18:33:50.965Z,3.50
2022-09-16T18:36:17.717Z,4.75
2022-09-16T18:38:44.671Z,4.03
2022-09-16T18:41:13.235Z,2.88
2022-09-16T18:43:43.276Z,4.28
2022-09-16T18:46:12.413Z,3.83
2022-09-16T18:48:40.111Z,3.17
2022-09-16T18:51:06.713Z,6.28
2022-09-16T18:53:34.503Z,4.70
2022-09-16T18:56:01.212Z,4.75
2022-09-16T18:58:27.770Z,14.73
2022-09-16T19:00:55.667Z,3.20
2022-09-16T19:03:22.233Z,3.47
2022-09-16T19:05:54.504Z,7.53
2022-09-16T19:08:21.144Z,3.75
2022-09-16T19:10:47.647Z,6.78
2022-09-16T19:13:14.237Z,4.20
2022-09-16T19:15:40.772Z,6.32
2022-09-16T19:18:08.666Z,4.70
2022-09-16T19:20:35.213Z,3.00
2022-09-16T19:23:01.728Z,4.75
2022-09-16T19:25:29.045Z,6.45
2022-09-16T19:27:55.602Z,4.45
2022-09-16T19:30:22.167Z,4.78
2022-09-16T19:32:50.595Z,3.47
2022-09-16T19:35:18.627Z,4.95
2022-09-16T19:37:45.185Z,3.05
2022-09-16T19:40:11.960Z,3.70
2022-09-16T19:42:38.559Z,4.18
2022-09-16T19:45:05.757Z,6.25
2022-09-16T19:47:32.327Z,3.58
2022-09-16T19:49:58.836Z,4.00
2022-09-16T19:52:26.939Z,3.50
2022-09-16T19:54:53.525Z,3.72
2022-09-16T19:57:20.082Z,3.15
2022-09-16T19:59:46.583Z,2.80
2022-09-16T20:02:13.145Z,3.92
2022-09-16T20:04:39.634Z,7.78
2022-09-16T20:07:06.260Z,3.50
2022-09-16T20:09:34.148Z,3.40
2022-09-16T20:12:00.731Z,8.38
2022-09-16T20:14:27.383Z,5.97
2022-09-16T20:16:53.997Z,3.17
2022-09-16T20:19:20.654Z,3.60
2022-09-16T20:21:47.503Z,3.00
2022-09-16T20:24:16.108Z,2.00
2022-09-16T20:26:44.300Z,2.55
2022-09-16T20:29:10.873Z,2.35
2022-09-16T20:31:37.743Z,2.67
2022-09-16T20:34:05.366Z,3.55
2022-09-16T20:36:37.085Z,2.42
2022-09-16T20:39:04.648Z,5.10
2022-09-16T20:41:32.592Z,2.63
2022-09-16T20:44:00.812Z,2.60
2022-09-16T20:46:29.615Z,2.22
2022-09-16T20:48:59.593Z,2.05
2022-09-16T20:51:29.181Z,5.10
2022-09-16T20:53:58.818Z,2.67
2022-09-16T20:56:27.012Z,2.40
2022-09-16T20:58:53.808Z,1.90
2022-09-16T21:01:24.415Z,3.50
2022-09-16T21:03:52.687Z,2.65
2022-09-16T21:06:19.571Z,2.70
2022-09-16T21:08:46.752Z,8.35
2022-09-16T21:11:15.184Z,4.93
2022-09-16T21:13:44.841Z,2.13
2022-09-16T21:16:13.430Z,2.97
2022-09-16T21:18:42.211Z,3.00
2022-09-16T21:21:12.219Z,4.88
2022-09-16T21:23:39.473Z,3.70
2022-09-16T21:26:09.597Z,2.60
2022-09-16T21:28:36.148Z,3.38
2022-09-16T21:31:05.685Z,4.40
2022-09-16T21:33:33.351Z,2.15
2022-09-16T21:36:01.819Z,4.32
2022-09-16T21:38:28.772Z,2.17
2022-09-16T21:40:56.417Z,5.97
2022-09-16T21:43:24.312Z,3.72
2022-09-16T21:45:50.853Z,3.75
2022-09-16T21:48:17.443Z,4.03
2022-09-16T21:50:43.986Z,2.40
2022-09-16T21:53:11.949Z,2.17
2022-09-16T21:55:38.504Z,2.30
2022-09-16T21:58:05.357Z,2.38
2022-09-16T22:00:32.434Z,4.05
2022-09-16T22:02:59.041Z,3.33
2022-09-16T22:05:25.626Z,3.40
2022-09-16T22:07:52.156Z,5.93
2022-09-16T22:10:20.027Z,3.47
2022-09-16T22:12:46.686Z,5.93
2022-09-16T22:15:13.260Z,4.63
2022-09-16T22:17:41.658Z,5.15
2022-09-16T22:20:09.155Z,2.65
2022-09-16T22:22:35.732Z,2.80
2022-09-16T22:25:02.288Z,4.18
2022-09-16T22:27:30.285Z,2.28
2022-09-16T22:29:56.837Z,4.35
2022-09-16T22:32:23.395Z,2.33
2022-09-16T22:34:49.921Z,2.65
2022-09-16T22:37:16.461Z,4.18
2022-09-16T22:39:42.971Z,4.68
2022-09-16T22:42:09.526Z,3.92
2022-09-16T22:44:37.441Z,2.58
2022-09-16T22:47:04.278Z,4.97
2022-09-16T22:49:30.828Z,2.85
2022-09-16T22:51:57.621Z,2.95
2022-09-16T22:54:24.205Z,2.22
2022-09-16T22:56:50.773Z,5.78
2022-09-16T22:59:20.029Z,3.50
2022-09-16T23:01:48.432Z,4.88
2022-09-16T23:04:15.319Z,5.65
2022-09-16T23:06:41.889Z,3.38
2022-09-16T23:09:10.862Z,3.25
2022-09-16T23:11:37.497Z,3.22
2022-09-16T23:14:04.705Z,5.57
2022-09-16T23:16:33.177Z,9.30
2022-09-16T23:19:03.815Z,2.35
2022-09-16T23:21:30.734Z,2.35
2022-09-16T23:23:59.673Z,3.63
2022-09-16T23:26:28.369Z,2.00
2022-09-16T23:28:56.970Z,3.28
2022-09-16T23:31:27.163Z,3.22
2022-09-16T23:33:55.034Z,7.65
2022-09-16T23:36:24.305Z,6.85
2022-09-16T23:38:50.871Z,4.68
2022-09-16T23:41:19.198Z,3.75
2022-09-16T23:43:46.895Z,2.38
2022-09-16T23:46:15.268Z,2.20
2022-09-16T23:48:42.387Z,3.85
2022-09-16T23:51:08.974Z,3.75
2022-09-16T23:53:38.199Z,2.40
2022-09-16T23:56:05.698Z,4.47
2022-09-16T23:58:32.357Z,6.47
